Time;durP1;ratioP1;P1;durP2;ratioP2;P2;SDS_P1;SDS_P2;PMS_P1;PMS_P2;Temp;Humidity;BMP_temperature;BMP_pressure;BME280_temperature;BME280_humidity;BME280_pressure;Samples;Min_cycle;Max_cycle;Signal;HPM_P1;HPM_P2
2022/07/23 00:01:31;;;;;;;8.10;5.60;;;;;;;18.21;62.89;99837.50;4916897;29;20151;-79
2022/07/23 00:03:58;;;;;;;9.93;5.38;;;;;;;17.94;62.93;99804.78;4919076;29;20087;-79
2022/07/23 00:06:25;;;;;;;8.15;4.47;;;;;;;17.92;63.08;99782.84;4918338;29;20066;-79
2022/07/23 00:08:53;;;;;;;6.57;4.90;;;;;;;18.19;62.85;99823.47;4917984;29;20098;-79
2022/07/23 00:11:21;;;;;;;6.50;4.82;;;;;;;18.24;62.67;99824.22;4918163;29;20390;-77
2022/07/23 00:13:49;;;;;;;7.57;4.75;;;;;;;18.20;62.79;99826.09;4917813;29;20060;-78
2022/07/23 00:16:15;;;;;;;7.20;5.15;;;;;;;18.15;63.02;99835.03;4917467;29;20083;-79
2022/07/23 00:18:43;;;;;;;6.72;5.15;;;;;;;18.11;63.55;99834.28;4917338;29;20056;-78
2022/07/23 00:21:10;;;;;;;8.18;5.28;;;;;;;17.97;63.83;99821.44;4917340;29;20070;-79
2022/07/23 00:23:37;;;;;;;7.32;5.00;;;;;;;17.86;64.02;99815.56;4917373;29;20052;-78
2022/07/23 00:26:04;;;;;;;10.52;5.57;;;;;;;17.97;64.19;99837.28;4918733;29;20565;-77
2022/07/23 00:28:31;;;;;;;7.85;5.13;;;;;;;17.94;64.00;99832.09;4917533;29;20066;-77
2022/07/23 00:30:58;;;;;;;9.98;5.38;;;;;;;17.93;64.00;99816.28;4897531;29;20057;-78
2022/07/23 00:33:25;;;;;;;6.40;4.97;;;;;;;17.78;63.94;99780.53;4898654;29;20052;-80
2022/07/23 00:35:52;;;;;;;10.50;5.20;;;;;;;18.03;63.82;99828.34;4898451;29;20054;-79
2022/07/23 00:38:19;;;;;;;7.05;5.32;;;;;;;17.95;64.30;99828.53;4898603;29;20080;-81
2022/07/23 00:40:46;;;;;;;9.32;5.65;;;;;;;17.94;64.27;99836.50;4897162;29;20052;-77
2022/07/23 00:43:13;;;;;;;10.85;5.80;;;;;;;17.89;64.58;99831.34;4912657;29;20056;-80
2022/07/23 00:45:41;;;;;;;6.03;4.55;;;;;;;17.90;64.52;99826.94;4897132;29;20081;-80
2022/07/23 00:48:08;;;;;;;8.02;4.60;;;;;;;17.92;64.11;99833.06;4898152;29;20139;-78
2022/07/23 00:50:35;;;;;;;8.40;5.22;;;;;;;17.95;64.27;99832.97;4898083;29;20104;-78
2022/07/23 00:53:02;;;;;;;5.80;5.00;;;;;;;17.83;64.46;99801.56;4898030;29;20060;-79
2022/07/23 00:55:30;;;;;;;8.50;4.97;;;;;;;17.96;64.39;99827.63;4898706;29;20052;-78
2022/07/23 00:57:57;;;;;;;6.03;4.95;;;;;;;17.92;64.71;99830.41;4912201;29;20478;-78
2022/07/23 01:00:24;;;;;;;11.25;5.80;;;;;;;17.87;65.04;99821.72;4898146;29;20060;-78
2022/07/23 01:02:51;;;;;;;11.30;5.63;;;;;;;17.54;65.34;99787.34;4897937;29;20060;-78
2022/07/23 01:05:22;;;;;;;7.32;5.55;;;;;;;17.66;65.79;99829.31;4896641;29;20052;-79
2022/07/23 01:07:50;;;;;;;9.55;5.80;;;;;;;17.68;65.90;99847.72;4912618;29;20127;-77
2022/07/23 01:10:32;;;;;;;10.52;5.50;;;;;;;17.57;66.06;99826.88;4896798;29;20063;-78
2022/07/23 01:13:08;;;;;;;8.20;5.60;;;;;;;17.64;65.83;99836.41;4897516;29;20056;-79
2022/07/23 01:15:37;;;;;;;8.25;5.38;;;;;;;17.64;65.96;99839.03;4904929;29;20151;-78
2022/07/23 01:18:06;;;;;;;8.60;5.95;;;;;;;17.67;66.08;99833.66;4913305;29;20068;-77
2022/07/23 01:20:34;;;;;;;;;;;;;;;17.45;66.03;99828.06;4915456;29;20525;-77
2022/07/23 01:23:01;;;;;;;8.00;5.47;;;;;;;17.45;66.34;99828.06;4916318;29;19927;-78
2022/07/23 01:25:29;;;;;;;9.90;5.75;;;;;;;17.50;66.61;99827.94;4914289;29;20095;-78
2022/07/23 01:27:59;;;;;;;8.75;6.00;;;;;;;17.52;66.88;99834.06;4914887;29;20060;-77
2022/07/23 01:30:27;;;;;;;10.00;5.82;;;;;;;17.51;66.68;99829.66;4915106;29;20552;-75
2022/07/23 01:32:56;;;;;;;9.05;6.00;;;;;;;17.30;67.03;99797.63;4899467;29;20103;-76
2022/07/23 01:35:23;;;;;;;8.38;5.50;;;;;;;17.53;66.91;99835.78;4915111;29;20427;-76
2022/07/23 01:37:53;;;;;;;7.18;5.38;;;;;;;17.26;67.10;99788.06;4930644;29;20426;-77
2022/07/23 01:40:21;;;;;;;7.50;5.72;;;;;;;17.49;67.03;99826.22;4914803;29;20562;-79
2022/07/23 01:42:50;;;;;;;8.15;6.15;;;;;;;17.53;67.22;99834.03;4915095;29;20060;-77
2022/07/23 01:45:18;;;;;;;8.68;5.38;;;;;;;17.54;67.08;99837.53;4930500;29;20064;-77
2022/07/23 01:47:49;;;;;;;8.95;5.45;;;;;;;17.44;67.14;99810.47;4930570;29;20052;-78
2022/07/23 01:50:16;;;;;;;7.50;5.82;;;;;;;17.54;67.01;99819.03;4930772;29;20100;-77
2022/07/23 01:52:52;;;;;;;11.25;5.90;;;;;;;17.64;67.04;99825.81;4916318;29;20060;-79
2022/07/23 01:55:19;;;;;;;9.20;5.85;;;;;;;17.48;66.95;99788.38;4916329;29;20088;-77
2022/07/23 01:57:48;;;;;;;7.50;6.05;;;;;;;17.63;66.91;99815.28;4916516;29;20569;-78
2022/07/23 02:00:19;;;;;;;9.32;5.88;;;;;;;17.71;67.01;99832.66;4915332;29;20061;-79
2022/07/23 02:02:48;;;;;;;10.77;6.20;;;;;;;17.60;66.97;99827.66;4931076;29;20083;-78
2022/07/23 02:05:15;;;;;;;10.20;6.35;;;;;;;17.68;66.98;99830.13;4931334;29;20060;-80
2022/07/23 02:07:44;;;;;;;13.65;6.68;;;;;;;17.79;66.97;99822.78;4930769;29;20503;-80
2022/07/23 02:10:11;;;;;;;10.63;6.13;;;;;;;17.84;66.93;99824.47;4915881;29;20063;-77
2022/07/23 02:12:38;;;;;;;11.25;6.05;;;;;;;17.91;66.69;99824.22;4899587;29;20151;-76
2022/07/23 02:15:26;;;;;;;8.57;5.90;;;;;;;18.07;66.38;99829.09;4928952;29;20478;-77
2022/07/23 02:17:53;;;;;;;9.95;6.53;;;;;;;18.11;66.29;99817.53;4930648;29;20068;-76
2022/07/23 02:20:20;;;;;;;10.23;5.97;;;;;;;18.25;65.96;99820.66;4915245;29;20055;-79
2022/07/23 02:22:47;;;;;;;8.65;6.07;;;;;;;18.39;65.67;99830.81;4915190;29;20055;-79
2022/07/23 02:25:14;;;;;;;14.10;6.82;;;;;;;18.46;65.28;99803.31;4916730;29;20056;-78
2022/07/23 02:27:42;;;;;;;10.93;6.40;;;;;;;18.77;64.60;99829.69;4950343;29;20056;-79
2022/07/23 02:30:10;;;;;;;11.70;6.30;;;;;;;19.42;62.91;99815.28;4934844;29;20060;-78
2022/07/23 02:32:39;;;;;;;10.15;5.75;;;;;;;21.73;56.63;99830.41;4934687;29;20058;-79
2022/07/23 02:35:09;;;;;;;10.20;6.50;;;;;;;24.00;50.60;99823.22;4934034;29;20146;-78
2022/07/23 02:37:36;;;;;;;7.60;5.47;;;;;;;25.37;46.64;99781.81;4932809;29;20055;-78
2022/07/23 02:40:04;;;;;;;10.50;6.15;;;;;;;26.74;43.85;99821.63;4917837;29;20510;-78
2022/07/23 02:42:33;;;;;;;7.50;5.95;;;;;;;27.71;41.52;99794.59;4933481;29;20048;-78
2022/07/23 02:45:00;;;;;;;6.95;5.85;;;;;;;28.74;39.53;99776.59;4918653;29;20052;-78
2022/07/23 02:47:28;;;;;;;7.18;5.75;;;;;;;29.48;38.25;99819.50;4933582;29;20059;-78
2022/07/23 02:49:56;;;;;;;10.60;5.90;;;;;;;30.28;36.43;99810.66;4901891;29;20154;-77
2022/07/23 02:52:23;;;;;;;10.38;6.38;;;;;;;31.10;34.92;99817.56;4917784;29;20139;-77
2022/07/23 02:54:50;;;;;;;10.15;5.95;;;;;;;32.01;33.46;99810.78;4933961;29;20143;-76
2022/07/23 02:57:17;;;;;;;7.63;6.80;;;;;;;32.84;32.03;99803.44;4933511;29;20107;-77
2022/07/23 02:59:44;;;;;;;8.15;6.05;;;;;;;33.61;30.43;99813.50;4919093;29;20060;-77
2022/07/23 03:02:11;;;;;;;9.38;5.82;;;;;;;34.02;30.01;99811.41;4933385;29;20056;-76
2022/07/23 03:04:42;;;;;;;7.47;5.93;;;;;;;34.44;29.23;99802.88;4902129;29;20056;-77
2022/07/23 03:07:11;;;;;;;9.35;6.10;;;;;;;35.00;27.95;99806.44;4917633;29;20063;-77
2022/07/23 03:09:38;;;;;;;7.38;5.50;;;;;;;35.37;27.49;99804.63;4902247;29;20495;-77
2022/07/23 03:12:07;;;;;;;11.10;7.47;;;;;;;35.97;26.97;99812.06;4917343;29;20059;-77
2022/07/23 03:14:40;;;;;;;8.65;6.97;;;;;;;36.26;26.13;99773.66;4933522;29;20075;-78
2022/07/23 03:17:09;;;;;;;7.85;6.85;;;;;;;37.06;25.52;99808.63;4918602;29;20102;-77
2022/07/23 03:19:37;;;;;;;9.35;6.50;;;;;;;37.56;24.69;99804.09;4933198;29;20075;-77
2022/07/23 03:22:05;;;;;;;8.53;6.03;;;;;;;37.97;24.34;99806.81;4933517;29;20079;-77
2022/07/23 03:27:20;;;;;;;10.13;8.48;;;;;;;38.53;23.24;99802.28;4917239;29;20056;-77
2022/07/23 03:29:48;;;;;;;6.82;5.90;;;;;;;38.94;23.03;99826.63;4918547;29;20056;-78
2022/07/23 03:32:15;;;;;;;7.93;6.22;;;;;;;39.63;22.24;99823.09;4901474;29;20052;-78
2022/07/23 03:34:43;;;;;;;7.20;5.80;;;;;;;40.19;21.48;99818.09;4901370;29;20052;-77
2022/07/23 03:37:10;;;;;;;7.25;5.82;;;;;;;40.29;21.56;99801.41;4918210;29;20080;-77
2022/07/23 03:39:37;;;;;;;7.82;5.85;;;;;;;40.40;20.86;99791.88;4901466;29;20088;-79
2022/07/23 03:42:05;;;;;;;7.13;6.28;;;;;;;40.88;20.66;99819.69;4918182;29;20525;-76
2022/07/23 03:44:33;;;;;;;7.38;5.85;;;;;;;41.13;20.28;99812.81;4918040;29;20052;-77
2022/07/23 03:47:02;;;;;;;6.97;6.32;;;;;;;41.38;20.07;99817.91;4932041;29;20099;-77
2022/07/23 03:49:32;;;;;;;9.02;6.85;;;;;;;41.53;20.12;99818.66;4932191;29;20056;-77
2022/07/23 03:52:00;;;;;;;7.95;6.65;;;;;;;42.10;19.70;99816.00;4932422;29;20570;-79
2022/07/23 03:54:27;;;;;;;7.25;6.35;;;;;;;42.62;18.94;99827.50;4917784;29;20088;-78
2022/07/23 03:56:54;;;;;;;7.55;6.22;;;;;;;42.98;18.73;99824.47;4917931;29;20088;-79
2022/07/23 03:59:21;;;;;;;7.03;6.40;;;;;;;43.40;18.18;99824.38;4900425;29;20074;-80
2022/07/23 04:01:50;;;;;;;8.82;6.28;;;;;;;43.37;18.23;99803.66;4933248;29;20052;-76
2022/07/23 04:04:17;;;;;;;7.88;5.95;;;;;;;43.43;17.90;99824.78;4916562;29;20056;-78
2022/07/23 04:06:45;;;;;;;6.78;6.20;;;;;;;43.29;18.18;99817.59;4932637;29;20515;-78
2022/07/23 04:09:14;;;;;;;7.65;6.38;;;;;;;43.34;18.14;99815.06;4932665;29;20052;-79
2022/07/23 04:11:41;;;;;;;8.52;6.90;;;;;;;42.87;18.31;99827.81;4918355;29;20060;-77
2022/07/23 04:14:08;;;;;;;7.90;6.90;;;;;;;41.34;19.75;99808.38;4932836;29;20060;-77
2022/07/23 04:16:35;;;;;;;9.30;8.30;;;;;;;38.51;23.06;99809.78;4917299;29;20059;-77
2022/07/23 04:19:04;;;;;;;9.93;6.88;;;;;;;36.12;26.21;99821.31;4900121;29;20060;-78
2022/07/23 04:21:39;;;;;;;7.70;6.88;;;;;;;34.44;28.42;99819.16;4916432;29;20051;-79
2022/07/23 04:24:07;;;;;;;9.95;7.10;;;;;;;32.84;30.73;99752.03;4917159;29;20119;-78
2022/07/23 04:26:35;;;;;;;7.97;7.17;;;;;;;32.25;32.29;99815.88;4931652;29;20521;-78
2022/07/23 04:29:02;;;;;;;8.70;6.38;;;;;;;31.59;33.45;99814.31;4900186;29;20292;-78
2022/07/23 04:31:30;;;;;;;7.60;5.82;;;;;;;30.97;34.76;99825.81;4900055;29;20499;-77
2022/07/23 04:34:04;;;;;;;7.45;5.93;;;;;;;30.54;35.57;99819.34;4900241;29;20055;-77
2022/07/23 04:36:31;;;;;;;7.45;6.40;;;;;;;30.08;35.67;99812.22;4899970;29;20135;-78
2022/07/23 04:38:58;;;;;;;8.02;6.05;;;;;;;29.45;36.71;99786.59;4900149;29;20414;-78
2022/07/23 04:41:25;;;;;;;10.70;6.20;;;;;;;29.47;37.45;99819.63;4931602;29;20060;-78
2022/07/23 04:43:52;;;;;;;8.15;6.03;;;;;;;29.07;38.45;99826.16;4931584;29;20048;-77
2022/07/23 04:46:20;;;;;;;9.02;5.93;;;;;;;28.69;39.08;99823.59;4931284;29;20056;-77
2022/07/23 04:48:50;;;;;;;6.90;5.97;;;;;;;28.51;39.50;99823.09;4930670;29;20055;-77
2022/07/23 04:51:17;;;;;;;6.53;5.70;;;;;;;28.32;40.00;99819.00;4915049;29;20462;-77
2022/07/23 04:53:45;;;;;;;8.45;6.57;;;;;;;28.17;40.55;99822.78;4931216;29;20055;-77
2022/07/23 04:56:12;;;;;;;7.65;5.78;;;;;;;27.98;41.29;99817.81;4916759;29;20091;-77
2022/07/23 04:58:39;;;;;;;8.48;6.00;;;;;;;27.94;41.29;99821.69;4916708;29;20056;-76
2022/07/23 05:01:06;;;;;;;9.95;6.15;;;;;;;28.05;41.22;99818.25;4899791;29;20525;-77
2022/07/23 05:03:35;;;;;;;9.40;6.40;;;;;;;28.12;41.42;99815.03;4931359;29;20070;-77
2022/07/23 05:06:03;;;;;;;10.60;6.20;;;;;;;28.16;41.65;99818.38;4916671;29;20052;-77
2022/07/23 05:08:30;;;;;;;7.63;5.60;;;;;;;28.04;41.83;99816.56;4899479;29;20058;-78
2022/07/23 05:10:58;;;;;;;10.52;6.13;;;;;;;27.95;41.79;99824.28;4930838;29;20430;-78
2022/07/23 05:13:27;;;;;;;;;;;;;;;27.51;41.92;99814.75;4899598;29;20134;-79
2022/07/23 05:15:54;;;;;;;7.15;6.30;;;;;;;27.78;42.32;99827.25;4916392;29;19969;-77
2022/07/23 05:18:23;;;;;;;7.30;6.50;;;;;;;27.82;42.30;99783.13;4930615;29;20108;-78
2022/07/23 05:20:50;;;;;;;7.00;6.28;;;;;;;27.95;42.27;99805.47;4914620;29;20478;-79
2022/07/23 05:23:20;;;;;;;11.30;6.50;;;;;;;27.95;42.79;99804.63;4914883;29;20154;-78
2022/07/23 05:25:49;;;;;;;6.80;5.97;;;;;;;27.86;42.35;99781.97;4930880;29;20169;-78
2022/07/23 05:28:19;;;;;;;9.45;6.05;;;;;;;27.88;42.56;99816.78;4899332;29;20430;-77
2022/07/23 05:30:50;;;;;;;7.85;6.28;;;;;;;27.91;42.65;99812.03;4931276;29;20060;-78
2022/07/23 05:33:19;;;;;;;7.35;6.38;;;;;;;28.03;42.29;99815.69;4930799;29;20099;-78
2022/07/23 05:35:46;;;;;;;8.48;6.10;;;;;;;28.17;42.33;99810.19;4899295;29;20084;-78
2022/07/23 05:38:28;;;;;;;7.35;6.30;;;;;;;28.32;42.22;99804.72;4930736;29;20503;-75
2022/07/23 05:40:58;;;;;;;9.43;6.78;;;;;;;28.46;42.44;99803.72;4915933;29;20508;-76
2022/07/23 05:43:26;;;;;;;8.05;6.25;;;;;;;28.48;42.44;99800.00;4898776;29;20470;-79
2022/07/23 05:45:54;;;;;;;8.55;6.30;;;;;;;28.56;42.26;99792.22;4930768;29;20052;-79
2022/07/23 05:48:22;;;;;;;7.00;6.30;;;;;;;28.72;41.60;99812.63;4930590;29;20060;-78
2022/07/23 05:51:00;;;;;;;8.57;6.57;;;;;;;28.64;41.62;99799.75;4930971;29;20052;-78
2022/07/23 05:53:32;;;;;;;8.38;6.15;;;;;;;28.66;41.46;99810.38;4930312;29;20755;-78
2022/07/23 05:56:20;;;;;;;6.85;6.13;;;;;;;28.68;41.95;99795.84;4915180;29;20056;-78
2022/07/23 05:58:48;;;;;;;9.10;6.50;;;;;;;28.77;41.85;99803.25;4930515;29;20141;-78
2022/07/23 06:01:17;;;;;;;8.55;6.38;;;;;;;28.69;41.70;99781.44;4933741;29;20064;-78
2022/07/23 06:04:11;;;;;;;8.02;6.30;;;;;;;28.93;41.31;99796.72;4918078;29;20060;-78
2022/07/23 06:06:47;;;;;;;7.28;6.50;;;;;;;28.76;41.43;99787.22;4934627;29;20060;-78
2022/07/23 06:09:15;;;;;;;7.10;5.80;;;;;;;28.69;41.99;99802.94;4934220;29;20087;-77
2022/07/23 06:11:43;;;;;;;7.80;6.40;;;;;;;28.74;41.40;99797.25;4902849;29;20142;-77
2022/07/23 06:14:11;;;;;;;7.25;6.40;;;;;;;28.75;41.63;99782.81;4934379;29;20056;-78
2022/07/23 06:16:50;;;;;;;9.33;6.50;;;;;;;28.74;41.74;99794.56;4919826;29;20143;-78
2022/07/23 06:19:17;;;;;;;10.00;6.30;;;;;;;28.54;41.50;99790.63;4933810;29;20312;-80
2022/07/23 06:21:45;;;;;;;8.32;6.38;;;;;;;28.64;41.33;99797.06;4918280;29;20143;-77
2022/07/23 06:24:16;;;;;;;9.32;6.22;;;;;;;28.67;40.89;99794.13;4933962;29;20143;-77
2022/07/23 06:26:44;;;;;;;8.82;6.57;;;;;;;28.70;41.13;99785.84;4917956;29;20475;-79
2022/07/23 06:29:11;;;;;;;7.50;6.50;;;;;;;28.80;41.32;99796.78;4919459;29;20060;-79
2022/07/23 06:31:38;;;;;;;7.40;6.20;;;;;;;28.88;40.73;99812.34;4933872;29;20465;-77
2022/07/23 06:34:06;;;;;;;9.88;6.30;;;;;;;28.68;40.98;99806.59;4919270;29;20498;-77
2022/07/23 06:36:35;;;;;;;6.82;6.10;;;;;;;28.47;41.40;99783.97;4933920;29;20107;-78
2022/07/23 06:39:02;;;;;;;7.03;6.22;;;;;;;28.44;41.11;99781.47;4919434;29;20450;-78
2022/07/23 06:41:31;;;;;;;42.33;33.60;;;;;;;28.31;41.30;99797.66;4902127;29;20056;-77
2022/07/23 06:43:59;;;;;;;8.60;6.25;;;;;;;28.21;42.12;99781.31;4917823;29;20112;-78
2022/07/23 06:46:29;;;;;;;8.98;6.47;;;;;;;28.16;42.04;99789.69;4933666;29;20078;-78
2022/07/23 06:48:56;;;;;;;7.20;6.47;;;;;;;28.14;42.04;99796.16;4917742;29;20079;-79
2022/07/23 06:51:23;;;;;;;8.48;6.32;;;;;;;28.15;41.54;99771.00;4918916;29;20048;-76
2022/07/23 06:53:51;;;;;;;9.32;6.57;;;;;;;27.80;41.57;99741.28;4902136;29;20060;-77
2022/07/23 06:56:18;;;;;;;9.98;6.45;;;;;;;28.06;41.94;99788.63;4918781;29;20064;-78
2022/07/23 06:58:45;;;;;;;8.20;6.47;;;;;;;28.08;41.80;99767.03;4918897;29;20163;-78
2022/07/23 07:01:12;;;;;;;10.13;6.88;;;;;;;28.23;41.80;99783.91;4918877;29;20084;-79
2022/07/23 07:03:41;;;;;;;7.22;6.07;;;;;;;28.31;41.74;99766.25;4933776;29;20080;-80
2022/07/23 07:06:10;;;;;;;7.28;6.40;;;;;;;28.45;41.41;99772.47;4918995;29;20056;-77
2022/07/23 07:08:37;;;;;;;7.65;6.85;;;;;;;28.53;41.67;99787.09;4920374;29;20087;-78
2022/07/23 07:11:04;;;;;;;11.30;6.60;;;;;;;28.38;41.95;99772.91;4934241;29;20072;-78
2022/07/23 07:13:31;;;;;;;7.90;7.10;;;;;;;28.36;42.18;99780.22;4930173;29;20072;-78
2022/07/23 07:15:59;;;;;;;9.32;6.65;;;;;;;28.55;41.74;99778.91;4929198;29;20056;-77
2022/07/23 07:18:26;;;;;;;7.47;6.70;;;;;;;28.66;40.50;99781.69;4919133;29;20147;-80
2022/07/23 07:20:54;;;;;;;8.13;6.90;;;;;;;28.63;40.08;99772.97;4918357;29;20080;-79
2022/07/23 07:23:23;;;;;;;10.48;7.28;;;;;;;28.52;39.76;99766.56;4918514;29;20411;-79
2022/07/23 07:25:50;;;;;;;7.75;6.85;;;;;;;28.23;40.39;99757.91;4918197;29;20058;-80
2022/07/23 07:28:17;;;;;;;9.82;7.30;;;;;;;28.39;40.27;99780.00;4918684;29;20052;-78
2022/07/23 07:30:45;;;;;;;7.75;6.85;;;;;;;28.56;39.67;99773.41;4918318;29;20121;-77
2022/07/23 07:33:13;;;;;;;9.68;7.28;;;;;;;28.78;39.09;99778.09;4901332;29;20108;-81
2022/07/23 07:35:40;;;;;;;10.32;7.03;;;;;;;29.02;39.62;99779.94;4918178;29;20048;-78
2022/07/23 07:38:07;;;;;;;7.50;6.60;;;;;;;29.14;39.00;99788.94;4918146;29;20051;-78
2022/07/23 07:40:35;;;;;;;8.77;7.20;;;;;;;28.82;38.58;99775.16;4918342;29;20052;-77
2022/07/23 07:43:03;;;;;;;8.35;6.95;;;;;;;28.71;38.76;99763.38;4917703;29;20514;-81
2022/07/23 07:45:30;;;;;;;12.48;9.15;;;;;;;28.72;39.67;99783.91;4918175;29;20064;-80
2022/07/23 07:47:57;;;;;;;8.15;7.35;;;;;;;28.92;38.47;99784.28;4918005;29;20103;-78
2022/07/23 07:50:24;;;;;;;8.30;7.25;;;;;;;28.95;38.65;99749.09;4917903;29;20119;-78
2022/07/23 07:52:52;;;;;;;9.43;7.50;;;;;;;29.30;37.64;99780.56;4917880;29;20058;-78
2022/07/23 07:55:19;;;;;;;9.43;7.90;;;;;;;29.43;37.45;99788.53;4917496;29;20055;-80
2022/07/23 07:57:46;;;;;;;11.70;8.00;;;;;;;29.26;37.51;99742.28;4917817;29;20088;-78
2022/07/23 08:00:16;;;;;;;8.50;7.60;;;;;;;29.60;36.78;99772.84;4917942;29;20111;-78
2022/07/23 08:02:46;;;;;;;9.23;7.63;;;;;;;29.90;37.00;99774.16;4917707;29;20578;-80
2022/07/23 08:05:13;;;;;;;9.35;7.47;;;;;;;30.02;36.36;99766.91;4917103;29;20060;-79
2022/07/23 08:07:41;;;;;;;9.63;7.70;;;;;;;29.99;36.34;99776.09;4917607;29;20056;-79
2022/07/23 08:10:09;;;;;;;10.05;7.95;;;;;;;29.94;36.16;99769.34;4917414;29;20107;-78
2022/07/23 08:12:46;;;;;;;8.75;7.85;;;;;;;30.25;35.97;99777.72;4917549;29;20052;-78
2022/07/23 08:15:16;;;;;;;9.68;7.70;;;;;;;30.07;36.09;99777.31;4917489;29;20052;-78
2022/07/23 08:17:45;;;;;;;10.63;8.63;;;;;;;30.08;36.04;99774.53;4917485;29;20086;-78
2022/07/23 08:20:13;;;;;;;8.52;7.45;;;;;;;30.16;35.95;99765.84;4917546;29;20060;-78
2022/07/23 08:22:55;;;;;;;9.77;7.80;;;;;;;30.11;35.77;99776.94;4916566;29;20123;-78
2022/07/23 08:25:34;;;;;;;9.00;8.10;;;;;;;29.71;35.75;99768.50;4917323;29;20528;-76
2022/07/23 08:28:05;;;;;;;9.18;7.68;;;;;;;29.54;36.04;99735.63;4917082;29;20143;-77
2022/07/23 08:30:33;;;;;;;10.38;8.68;;;;;;;29.99;35.88;99773.41;4931641;29;20056;-78
2022/07/23 08:33:01;;;;;;;10.77;8.80;;;;;;;30.15;35.96;99777.56;4916487;29;20056;-78
2022/07/23 08:35:32;;;;;;;;;;;;;;;30.02;36.31;99766.91;4917125;29;20063;-77
2022/07/23 08:38:00;;;;;;;10.90;8.93;;;;;;;30.42;35.69;99761.06;4916513;29;19930;-77
2022/07/23 08:40:31;;;;;;;8.88;7.97;;;;;;;30.65;34.83;99772.66;4917162;29;20059;-77
2022/07/23 08:43:05;;;;;;;8.65;7.72;;;;;;;30.68;35.04;99780.50;4916786;29;20059;-77
2022/07/23 08:45:45;;;;;;;9.75;8.15;;;;;;;30.89;34.69;99767.13;4917008;29;20056;-79
2022/07/23 08:48:17;;;;;;;10.90;8.68;;;;;;;30.92;34.25;99757.94;4916916;29;20074;-78
2022/07/23 08:50:51;;;;;;;10.40;8.35;;;;;;;31.00;34.34;99774.34;4917196;29;20060;-78
2022/07/23 08:53:23;;;;;;;8.98;8.07;;;;;;;31.00;33.71;99763.53;4916727;29;20126;-78
2022/07/23 08:55:55;;;;;;;9.02;7.90;;;;;;;31.22;33.60;99755.34;4916695;29;20060;-78
2022/07/23 08:58:25;;;;;;;10.00;8.60;;;;;;;31.54;33.16;99754.47;4916810;29;20159;-78
2022/07/23 09:00:57;;;;;;;9.25;8.07;;;;;;;31.74;33.04;99754.59;4917011;29;20052;-78
2022/07/23 09:03:32;;;;;;;14.88;9.18;;;;;;;31.83;32.88;99749.22;4916751;29;20115;-79
2022/07/23 09:06:01;;;;;;;10.85;8.70;;;;;;;31.67;33.07;99734.53;4916196;29;20399;-79
2022/07/23 09:08:37;;;;;;;11.25;8.57;;;;;;;31.00;34.02;99763.53;4916265;29;20466;-78
2022/07/23 09:11:09;;;;;;;10.85;8.15;;;;;;;30.55;35.22;99758.25;4916071;29;20430;-77
2022/07/23 09:13:42;;;;;;;8.75;7.85;;;;;;;30.24;35.27;99714.88;4916525;29;20056;-77
2022/07/23 09:16:12;;;;;;;9.27;7.97;;;;;;;30.40;34.89;99745.03;4916195;29;20115;-77
2022/07/23 09:18:51;;;;;;;10.73;8.50;;;;;;;30.32;35.11;99747.47;4916130;29;20087;-76
2022/07/23 09:21:21;;;;;;;11.80;8.40;;;;;;;30.54;35.00;99757.34;4916494;29;20115;-79
2022/07/23 09:23:58;;;;;;;10.35;7.57;;;;;;;30.88;34.46;99729.50;4899687;29;20080;-79
2022/07/23 09:26:29;;;;;;;11.63;8.00;;;;;;;31.10;33.70;99736.63;4916569;29;20143;-79
2022/07/23 09:29:20;;;;;;;9.63;8.18;;;;;;;31.09;33.62;99734.94;4916530;29;20090;-77
2022/07/23 09:32:13;;;;;;;9.10;8.05;;;;;;;31.18;33.20;99736.84;4916376;29;20060;-78
2022/07/23 09:34:49;;;;;;;9.63;8.20;;;;;;;31.06;33.63;99730.63;4916115;29;20055;-79
2022/07/23 09:37:19;;;;;;;9.07;7.93;;;;;;;30.97;33.77;99726.03;4916054;29;20064;-78
2022/07/23 09:39:49;;;;;;;10.15;7.90;;;;;;;30.98;33.62;99720.50;4916293;29;20076;-78
2022/07/23 09:42:25;;;;;;;9.98;8.13;;;;;;;30.94;33.40;99708.28;4930475;29;20060;-79
2022/07/23 09:44:57;;;;;;;10.95;9.18;;;;;;;30.87;33.64;99727.78;4916364;29;20066;-76
2022/07/23 09:47:29;;;;;;;11.10;8.27;;;;;;;31.25;32.79;99715.59;4916368;29;20139;-78
2022/07/23 09:50:19;;;;;;;9.95;8.68;;;;;;;31.65;32.77;99707.66;4930696;29;20063;-78
2022/07/23 09:52:53;;;;;;;10.25;8.45;;;;;;;32.02;31.73;99718.78;4916250;29;20075;-77
2022/07/23 09:55:38;;;;;;;9.15;8.00;;;;;;;32.14;31.10;99710.63;4930507;29;20048;-78
2022/07/23 09:58:11;;;;;;;12.80;8.38;;;;;;;32.18;31.32;99712.03;4899377;29;20430;-77
2022/07/23 10:00:42;;;;;;;9.73;8.68;;;;;;;32.14;31.66;99716.88;4915570;29;20526;-77
2022/07/23 10:03:12;;;;;;;10.00;7.80;;;;;;;31.72;32.29;99722.31;4930354;29;20060;-78
2022/07/23 10:05:43;;;;;;;8.90;7.80;;;;;;;31.25;32.75;99721.84;4915951;29;20530;-78
2022/07/23 10:08:19;;;;;;;9.25;8.30;;;;;;;30.67;33.59;99724.03;4915958;29;20070;-78
2022/07/23 10:11:13;;;;;;;12.57;8.70;;;;;;;30.20;34.33;99724.19;4915943;29;20148;-79
2022/07/23 10:14:04;;;;;;;11.18;8.70;;;;;;;29.97;35.04;99726.91;4899171;29;20056;-77
2022/07/23 10:17:01;;;;;;;11.32;8.48;;;;;;;29.85;35.05;99716.25;4914538;29;20052;-77
2022/07/23 10:19:31;;;;;;;11.32;9.00;;;;;;;29.84;35.16;99712.72;4916020;29;20096;-78
2022/07/23 10:22:10;;;;;;;12.35;8.15;;;;;;;29.85;35.20;99710.88;4915768;29;20150;-78
2022/07/23 10:24:47;;;;;;;10.07;8.25;;;;;;;29.86;35.65;99697.28;4916040;29;20087;-78
2022/07/23 10:27:50;;;;;;;15.52;11.23;;;;;;;30.00;35.37;99698.88;4913970;29;20530;-79
2022/07/23 10:30:35;;;;;;;10.80;9.02;;;;;;;30.18;34.70;99705.47;4915685;29;20060;-78
2022/07/23 10:33:10;;;;;;;15.57;11.95;;;;;;;30.34;34.51;99693.47;4915786;29;20084;-78
2022/07/23 10:35:47;;;;;;;11.85;8.55;;;;;;;30.59;33.86;99687.78;4915746;29;20151;-76
2022/07/23 10:38:33;;;;;;;11.13;9.18;;;;;;;31.15;33.25;99696.66;4915540;29;20108;-78
2022/07/23 10:41:05;;;;;;;11.43;8.38;;;;;;;31.47;32.70;99679.56;4915661;29;20135;-78
2022/07/23 10:43:34;;;;;;;10.75;8.55;;;;;;;31.63;31.72;99688.88;4916122;29;20060;-79
2022/07/23 10:46:37;;;;;;;10.85;8.82;;;;;;;31.47;31.74;99675.03;4900023;29;20109;-79
2022/07/23 10:49:36;;;;;;;13.55;11.40;;;;;;;31.53;31.93;99679.88;4919319;29;20116;-79
2022/07/23 10:52:25;;;;;;;10.98;8.55;;;;;;;31.42;31.87;99675.41;4910911;29;20063;-77
2022/07/23 10:55:15;;;;;;;12.60;9.35;;;;;;;31.36;32.64;99675.94;4919360;29;20143;-78
2022/07/23 10:57:50;;;;;;;10.85;8.02;;;;;;;30.97;33.33;99686.44;4918714;29;20525;-77
2022/07/23 11:00:22;;;;;;;10.23;8.00;;;;;;;30.52;34.00;99681.16;4901662;29;20122;-79
2022/07/23 11:02:53;;;;;;;9.88;8.30;;;;;;;30.16;34.52;99652.72;4918912;29;20094;-77
2022/07/23 11:05:45;;;;;;;10.10;8.68;;;;;;;30.00;34.99;99670.09;4918480;29;20070;-77
2022/07/23 11:08:19;;;;;;;11.23;8.73;;;;;;;30.17;35.66;99668.72;4918594;29;20124;-78
2022/07/23 11:10:53;;;;;;;12.57;8.88;;;;;;;30.42;35.46;99669.47;4919119;29;20150;-78
2022/07/23 11:13:22;;;;;;;14.05;9.32;;;;;;;30.62;34.98;99667.81;4933028;29;20143;-79
2022/07/23 11:16:05;;;;;;;11.50;9.40;;;;;;;30.68;35.17;99661.91;4918520;29;20119;-79
2022/07/23 11:18:40;;;;;;;12.60;8.90;;;;;;;30.54;34.60;99667.59;4918226;29;20205;-78
2022/07/23 11:21:26;;;;;;;9.05;8.15;;;;;;;30.42;34.62;99659.53;4918394;29;20593;-78
2022/07/23 11:24:10;;;;;;;14.68;9.00;;;;;;;30.39;34.51;99657.13;4918327;29;20094;-80
2022/07/23 11:26:38;;;;;;;10.63;8.60;;;;;;;30.57;34.11;99670.88;4918164;29;20450;-78
2022/07/23 11:29:25;;;;;;;9.70;8.70;;;;;;;30.70;34.26;99665.31;4918181;29;20085;-75
2022/07/23 11:31:59;;;;;;;12.07;8.50;;;;;;;30.91;33.75;99654.63;4918266;29;20052;-78
2022/07/23 11:34:41;;;;;;;9.95;8.75;;;;;;;31.26;33.49;99650.72;4918335;29;20056;-78
2022/07/23 11:37:11;;;;;;;10.10;8.77;;;;;;;31.54;32.65;99653.75;4918390;29;20058;-77
2022/07/23 11:39:39;;;;;;;12.82;8.85;;;;;;;31.74;32.35;99652.84;4918657;29;20067;-79
2022/07/23 11:42:07;;;;;;;12.55;8.77;;;;;;;31.97;32.48;99647.25;4918160;29;20083;-78
2022/07/23 11:44:37;;;;;;;9.38;8.38;;;;;;;31.94;31.92;99648.38;4901235;29;20569;-77
2022/07/23 11:47:07;;;;;;;9.68;8.68;;;;;;;31.71;32.05;99606.38;4919054;29;20067;-79
2022/07/23 11:49:35;;;;;;;10.88;8.82;;;;;;;31.96;31.81;99643.69;4935005;29;20590;-77
2022/07/23 11:52:05;;;;;;;10.43;8.27;;;;;;;32.10;31.88;99649.75;4935007;29;20084;-78